Time;durP1;ratioP1;P1;durP2;ratioP2;P2;SDS_P1;SDS_P2;PMS_P1;PMS_P2;Temp;Humidity;BMP_temperature;BMP_pressure;BME280_temperature;BME280_humidity;BME280_pressure;Samples;Min_cycle;Max_cycle;Signal;HPM_P1;HPM_P2
2021/11/21 00:02:07;;;;;;;23.00;19.20;;;;;;;8.38;100.00;98800.98;103133;1316;74467;-74
2021/11/21 00:04:35;;;;;;;25.40;21.10;;;;;;;8.38;100.00;98800.11;104042;1317;61339;-74
2021/11/21 00:07:02;;;;;;;22.10;19.30;;;;;;;8.37;100.00;98798.38;104324;1313;62223;-73
2021/11/21 00:09:28;;;;;;;23.40;19.20;;;;;;;8.35;100.00;98789.61;104367;1313;75414;-74
2021/11/21 00:11:56;;;;;;;23.30;18.40;;;;;;;8.35;100.00;98790.70;102861;1313;69237;-73
2021/11/21 00:14:22;;;;;;;25.00;19.90;;;;;;;8.35;100.00;98789.64;102301;1313;74810;-73
2021/11/21 00:16:49;;;;;;;25.20;20.80;;;;;;;8.35;100.00;98782.23;101997;1316;61483;-73
2021/11/21 00:19:16;;;;;;;25.80;20.60;;;;;;;8.34;100.00;98775.52;102333;1313;62147;-73
2021/11/21 00:21:43;;;;;;;23.90;20.10;;;;;;;8.33;100.00;98775.77;102246;1316;75464;-75
2021/11/21 00:24:10;;;;;;;25.20;19.70;;;;;;;8.31;100.00;98772.16;102224;1316;69510;-73
2021/11/21 00:26:37;;;;;;;26.90;21.70;;;;;;;8.30;100.00;98773.14;102215;1316;73428;-72
2021/11/21 00:29:03;;;;;;;25.10;20.30;;;;;;;8.30;100.00;98768.04;102213;1317;61738;-73
2021/11/21 00:31:30;;;;;;;22.90;20.40;;;;;;;8.28;100.00;98767.41;102215;1313;61219;-73
2021/11/21 00:33:57;;;;;;;28.50;20.50;;;;;;;8.26;100.00;98763.14;102182;1316;75610;-73
2021/11/21 00:36:23;;;;;;;26.00;20.30;;;;;;;8.24;100.00;98763.41;102185;1312;69681;-73
2021/11/21 00:38:50;;;;;;;25.20;19.80;;;;;;;8.25;100.00;98760.38;102200;1313;73466;-73
2021/11/21 00:41:17;;;;;;;22.30;19.20;;;;;;;8.24;100.00;98761.31;102181;1313;61428;-73
2021/11/21 00:43:43;;;;;;;21.80;19.30;;;;;;;8.23;100.00;98756.92;102191;1313;61502;-73
2021/11/21 00:46:10;;;;;;;22.10;18.80;;;;;;;8.22;100.00;98755.04;102193;1313;75595;-73
2021/11/21 00:48:38;;;;;;;22.10;17.90;;;;;;;8.21;100.00;98750.14;102201;1313;68915;-73
2021/11/21 00:51:05;;;;;;;21.00;17.50;;;;;;;8.21;100.00;98749.09;102192;1314;74573;-73
2021/11/21 00:53:32;;;;;;;24.80;19.40;;;;;;;8.21;100.00;98746.63;102218;1313;61241;-73
2021/11/21 00:56:03;;;;;;;21.60;18.20;;;;;;;8.20;100.00;98740.84;102223;1314;62079;-73
2021/11/21 00:58:31;;;;;;;21.70;18.90;;;;;;;8.19;100.00;98737.55;102247;1313;75809;-73
2021/11/21 01:00:59;;;;;;;24.30;20.00;;;;;;;8.17;100.00;98734.32;102341;1313;68643;-73
2021/11/21 01:03:26;;;;;;;24.20;19.80;;;;;;;8.16;100.00;98727.80;102217;1314;74608;-73
2021/11/21 01:05:55;;;;;;;21.90;18.60;;;;;;;8.14;100.00;98730.21;102229;1317;61422;-73
2021/11/21 01:08:22;;;;;;;21.20;18.60;;;;;;;8.13;100.00;98729.94;102327;1313;61393;-73
2021/11/21 01:10:53;;;;;;;25.40;19.40;;;;;;;8.11;100.00;98725.27;101881;1317;73587;-73
2021/11/21 01:13:22;;;;;;;20.70;17.00;;;;;;;8.11;100.00;98718.73;102363;1313;70625;-73
2021/11/21 01:15:49;;;;;;;20.90;16.70;;;;;;;8.11;100.00;98722.95;102299;1313;74804;-73
2021/11/21 01:18:17;;;;;;;20.30;17.10;;;;;;;8.13;100.00;98726.41;102199;1316;61442;-73
2021/11/21 01:20:45;;;;;;;21.70;17.40;;;;;;;8.13;100.00;98721.05;102256;1313;61289;-74
2021/11/21 01:23:14;;;;;;;19.30;16.20;;;;;;;8.13;100.00;98716.11;102274;1313;75537;-73
2021/11/21 01:25:41;;;;;;;20.20;15.60;;;;;;;8.13;100.00;98710.46;102252;1316;67708;-73
2021/11/21 01:28:09;;;;;;;17.70;14.90;;;;;;;8.14;100.00;98707.42;102221;1313;74712;-73
2021/11/21 01:30:36;;;;;;;19.00;15.20;;;;;;;8.15;100.00;98707.53;102180;1314;61404;-73
2021/11/21 01:33:03;;;;;;;17.80;15.00;;;;;;;8.17;100.00;98705.80;102205;1313;62135;-72
2021/11/21 01:35:31;;;;;;;17.30;13.80;;;;;;;8.18;100.00;98705.02;102198;1313;76460;-73
2021/11/21 01:37:59;;;;;;;16.60;14.80;;;;;;;8.20;100.00;98701.58;101897;1316;68788;-73
2021/11/21 01:40:27;;;;;;;17.50;15.20;;;;;;;8.20;100.00;98700.65;102311;1313;73722;-73
2021/11/21 01:42:54;;;;;;;15.40;13.60;;;;;;;8.21;100.00;98698.67;102224;1313;61323;-73
2021/11/21 01:45:22;;;;;;;15.40;13.10;;;;;;;8.20;100.00;98691.79;102176;1313;61305;-74
2021/11/21 01:47:48;;;;;;;15.70;12.90;;;;;;;8.20;100.00;98684.58;102194;1313;76543;-72
2021/11/21 01:50:22;;;;;;;16.60;13.90;;;;;;;8.20;100.00;98676.80;102183;1313;69618;-73
2021/11/21 01:52:49;;;;;;;14.70;13.00;;;;;;;8.19;100.00;98671.34;102176;1313;73517;-73
2021/11/21 01:55:15;;;;;;;16.20;14.50;;;;;;;8.19;100.00;98665.73;102230;1317;61341;-72
2021/11/21 01:57:42;;;;;;;16.20;13.00;;;;;;;8.18;100.00;98660.27;102220;1313;62209;-73
2021/11/21 02:00:11;;;;;;;14.00;12.40;;;;;;;8.18;100.00;98655.67;102187;1313;75973;-73
2021/11/21 02:02:38;;;;;;;14.00;12.30;;;;;;;8.18;100.00;98650.92;102205;1313;69671;-73
2021/11/21 02:05:05;;;;;;;14.00;11.30;;;;;;;8.17;100.00;98652.58;102224;1313;73796;-73
2021/11/21 02:07:32;;;;;;;14.90;13.30;;;;;;;8.16;100.00;98646.44;102202;1316;61635;-73
2021/11/21 02:09:58;;;;;;;14.00;12.10;;;;;;;8.14;100.00;98645.12;102201;1313;62520;-73
2021/11/21 02:12:26;;;;;;;14.20;11.90;;;;;;;8.13;100.00;98641.09;102192;1313;76519;-73
2021/11/21 02:14:53;;;;;;;12.40;11.10;;;;;;;8.12;100.00;98638.70;101857;1317;69504;-73
2021/11/21 02:17:24;;;;;;;13.10;11.20;;;;;;;8.10;100.00;98632.27;102203;1313;73608;-73
2021/11/21 02:19:51;;;;;;;13.70;11.60;;;;;;;8.08;100.00;98626.94;102240;1314;61396;-74
2021/11/21 02:22:18;;;;;;;13.80;12.00;;;;;;;8.05;100.00;98625.17;102226;1313;61404;-73
2021/11/21 02:24:45;;;;;;;12.30;10.90;;;;;;;8.02;100.00;98619.67;102243;1313;76460;-74
2021/11/21 02:27:18;;;;;;;13.50;11.60;;;;;;;8.00;100.00;98613.30;102168;1313;70515;-73
2021/11/21 02:29:45;;;;;;;12.70;11.40;;;;;;;7.96;100.00;98605.20;102209;1317;74458;-76
2021/11/21 02:32:12;;;;;;;13.30;11.20;;;;;;;7.92;100.00;98605.08;102272;1313;61331;-74
2021/11/21 02:34:38;;;;;;;12.70;11.40;;;;;;;7.89;100.00;98596.98;102221;1313;61250;-74
2021/11/21 02:37:09;;;;;;;13.70;12.00;;;;;;;7.87;100.00;98595.50;102257;1313;76416;-74
2021/11/21 02:39:39;;;;;;;12.70;10.80;;;;;;;7.84;100.00;98592.16;102249;1313;70546;-73
2021/11/21 02:42:07;;;;;;;12.50;10.40;;;;;;;7.78;100.00;98586.34;102277;1313;73540;-73
2021/11/21 02:44:35;;;;;;;13.80;12.30;;;;;;;7.68;100.00;98583.56;102294;1317;61333;-73
2021/11/21 02:47:02;;;;;;;14.90;12.10;;;;;;;7.60;100.00;98580.18;102217;1313;62174;-73
2021/11/21 02:49:28;;;;;;;12.90;11.20;;;;;;;7.52;100.00;98576.41;102182;1316;76415;-73
2021/11/21 02:51:55;;;;;;;16.80;13.40;;;;;;;7.45;100.00;98571.36;102212;1313;70569;-73
2021/11/21 02:54:21;;;;;;;13.00;11.60;;;;;;;7.39;100.00;98567.15;102212;1317;72982;-74
2021/11/21 02:56:48;;;;;;;14.00;11.50;;;;;;;7.36;100.00;98565.73;102194;1317;61429;-74
2021/11/21 02:59:24;;;;;;;11.90;10.60;;;;;;;7.36;100.00;98558.16;102204;1313;61295;-73
2021/11/21 03:01:51;;;;;;;11.70;9.90;;;;;;;7.38;100.00;98550.46;101866;1314;74928;-73
2021/11/21 03:04:22;;;;;;;11.80;9.70;;;;;;;7.42;100.00;98548.24;102288;1313;69706;-73
2021/11/21 03:06:48;;;;;;;12.10;9.50;;;;;;;7.45;100.00;98546.64;102019;1316;73453;-73
2021/11/21 03:09:23;;;;;;;11.70;10.00;;;;;;;7.47;100.00;98537.29;102198;1316;61329;-73
2021/11/21 03:11:53;;;;;;;10.90;8.90;;;;;;;7.50;100.00;98536.64;101899;1319;61520;-74
2021/11/21 03:14:20;;;;;;;10.20;8.80;;;;;;;7.52;100.00;98531.54;102209;1313;76425;-73
2021/11/21 03:16:47;;;;;;;10.90;9.70;;;;;;;7.54;100.00;98527.89;102182;1314;69493;-72
2021/11/21 03:19:14;;;;;;;11.60;10.10;;;;;;;7.55;100.00;98525.70;102200;1313;74593;-73
2021/11/21 03:21:42;;;;;;;11.40;10.00;;;;;;;7.55;100.00;98526.96;101833;1317;61385;-73
2021/11/21 03:24:09;;;;;;;10.40;9.00;;;;;;;7.54;100.00;98523.97;102208;1313;62081;-73
2021/11/21 03:26:36;;;;;;;9.60;8.50;;;;;;;7.55;99.97;98523.38;102198;1316;76751;-73
2021/11/21 03:29:03;;;;;;;9.80;8.50;;;;;;;7.55;99.98;98520.40;101864;1316;69491;-73
2021/11/21 03:31:30;;;;;;;9.40;8.40;;;;;;;7.51;99.90;98519.41;102183;1313;74446;-73
2021/11/21 03:33:56;;;;;;;9.90;8.80;;;;;;;7.46;99.90;98513.67;102165;1316;61759;-73
2021/11/21 03:36:23;;;;;;;9.10;8.20;;;;;;;7.41;99.86;98509.96;102212;1316;62143;-75
2021/11/21 03:38:50;;;;;;;10.30;9.10;;;;;;;7.35;99.84;98505.38;102291;1313;76423;-75
2021/11/21 03:41:16;;;;;;;10.10;9.10;;;;;;;7.28;99.85;98502.98;102090;1316;69435;-74
2021/11/21 03:43:43;;;;;;;10.90;9.00;;;;;;;7.21;99.98;98499.15;102338;1313;74541;-73
2021/11/21 03:46:09;;;;;;;11.20;8.50;;;;;;;7.15;99.98;98501.51;102378;1313;61319;-73
2021/11/21 03:48:36;;;;;;;10.30;9.20;;;;;;;7.08;99.97;98500.83;102261;1313;62210;-72
2021/11/21 03:51:03;;;;;;;11.10;10.00;;;;;;;7.01;100.00;98501.58;102244;1313;75920;-74
2021/11/21 03:53:30;;;;;;;10.40;9.30;;;;;;;6.97;100.00;98504.31;102230;1313;69627;-73
2021/11/21 03:55:57;;;;;;;12.60;10.50;;;;;;;6.94;100.00;98504.84;102224;1313;74607;-73
2021/11/21 03:58:24;;;;;;;11.30;9.50;;;;;;;6.90;100.00;98504.20;101854;1319;61522;-73
2021/11/21 04:00:51;;;;;;;10.60;9.50;;;;;;;6.89;100.00;98506.20;101850;1316;61571;-72
2021/11/21 04:03:19;;;;;;;13.20;10.60;;;;;;;6.91;100.00;98506.30;102258;1314;75471;-74
2021/11/21 04:05:46;;;;;;;13.50;9.40;;;;;;;6.93;100.00;98502.44;102248;1313;70573;-74
2021/11/21 04:08:13;;;;;;;12.50;10.20;;;;;;;6.95;100.00;98497.73;102333;1314;73562;-73
2021/11/21 04:10:40;;;;;;;13.60;10.20;;;;;;;6.98;100.00;98497.57;102280;1313;61926;-72
2021/11/21 04:13:06;;;;;;;12.70;9.90;;;;;;;7.01;100.00;98497.55;102300;1313;61360;-72
2021/11/21 04:15:33;;;;;;;12.80;10.20;;;;;;;7.02;100.00;98500.83;102278;1314;76608;-72
2021/11/21 04:18:00;;;;;;;13.10;11.30;;;;;;;7.02;100.00;98501.00;102328;1313;69604;-73
2021/11/21 04:20:28;;;;;;;13.20;10.80;;;;;;;7.03;100.00;98503.79;102019;1317;74524;-74
2021/11/21 04:22:54;;;;;;;13.70;11.70;;;;;;;7.03;100.00;98494.61;102402;1314;61368;-72
2021/11/21 04:25:21;;;;;;;12.80;11.50;;;;;;;7.00;100.00;98485.93;102269;1316;61938;-73
2021/11/21 04:27:48;;;;;;;12.20;10.90;;;;;;;6.97;100.00;98479.25;102248;1313;76424;-73
2021/11/21 04:30:16;;;;;;;13.40;10.60;;;;;;;6.92;100.00;98479.16;102241;1316;69781;-72
2021/11/21 04:32:45;;;;;;;13.50;11.50;;;;;;;6.88;100.00;98477.88;102276;1314;74241;-72
2021/11/21 04:35:15;;;;;;;13.90;11.40;;;;;;;6.83;100.00;98472.52;102206;1314;61416;-73
2021/11/21 04:37:41;;;;;;;13.50;11.50;;;;;;;6.78;100.00;98469.06;101908;1317;62140;-73
2021/11/21 04:40:10;;;;;;;14.10;11.50;;;;;;;6.73;100.00;98461.41;101734;1313;187541;-72
2021/11/21 04:42:38;;;;;;;14.00;12.30;;;;;;;6.69;100.00;98452.70;101934;1316;68798;-73
2021/11/21 04:45:05;;;;;;;13.60;11.90;;;;;;;6.65;100.00;98452.95;102234;1314;73476;-73
2021/11/21 04:47:32;;;;;;;13.80;12.00;;;;;;;6.63;100.00;98449.91;102183;1313;61329;-73
2021/11/21 04:49:59;;;;;;;12.90;11.40;;;;;;;6.61;100.00;98445.23;101913;1313;61464;-73
2021/11/21 04:52:25;;;;;;;13.00;11.70;;;;;;;6.60;100.00;98439.46;101916;1314;76485;-73
2021/11/21 04:54:52;;;;;;;13.40;11.40;;;;;;;6.59;100.00;98437.23;102252;1314;70617;-73
2021/11/21 04:57:19;;;;;;;13.70;11.10;;;;;;;6.57;100.00;98437.11;102317;1316;73600;-74
2021/11/21 04:59:46;;;;;;;14.50;11.80;;;;;;;6.56;100.00;98431.70;102272;1313;61325;-74
2021/11/21 05:02:12;;;;;;;16.60;13.10;;;;;;;6.55;100.00;98429.48;102275;1313;61327;-73
2021/11/21 05:04:39;;;;;;;13.80;11.20;;;;;;;6.53;100.00;98431.90;102277;1314;75699;-74
2021/11/21 05:07:06;;;;;;;12.90;11.50;;;;;;;6.53;100.00;98436.67;102324;1313;69540;-74
2021/11/21 05:09:33;;;;;;;13.60;12.00;;;;;;;6.54;100.00;98432.52;101800;1319;74882;-74
2021/11/21 05:12:00;;;;;;;15.10;12.80;;;;;;;6.53;100.00;98435.08;102489;1313;61425;-74
2021/11/21 05:14:27;;;;;;;15.40;12.70;;;;;;;6.52;100.00;98436.06;102598;1313;61308;-74
2021/11/21 05:16:53;;;;;;;18.60;14.50;;;;;;;6.48;100.00;98432.58;102670;1314;76473;-74
2021/11/21 05:19:20;;;;;;;16.70;13.50;;;;;;;6.44;100.00;98429.82;102681;1313;69603;-74
2021/11/21 05:21:46;;;;;;;16.10;12.90;;;;;;;6.39;100.00;98422.86;102769;1313;72672;-74
2021/11/21 05:24:14;;;;;;;16.20;13.40;;;;;;;6.36;100.00;98423.41;103818;1314;61320;-72
2021/11/21 05:26:40;;;;;;;14.50;12.60;;;;;;;6.33;100.00;98420.25;104519;1313;61154;-73
2021/11/21 05:29:07;;;;;;;15.80;13.80;;;;;;;6.30;100.00;98418.66;104544;1318;75577;-73
2021/11/21 05:31:33;;;;;;;15.90;12.50;;;;;;;6.26;100.00;98421.70;104270;1316;70612;-73
2021/11/21 05:34:00;;;;;;;14.10;11.90;;;;;;;6.23;100.00;98415.55;102388;1316;74505;-72
2021/11/21 05:36:26;;;;;;;13.20;11.50;;;;;;;6.19;100.00;98420.37;102376;1317;61227;-73
2021/11/21 05:38:53;;;;;;;14.20;11.40;;;;;;;6.14;100.00;98418.30;102370;1313;61934;-73
2021/11/21 05:41:20;;;;;;;14.20;12.40;;;;;;;6.12;100.00;98415.06;102367;1314;76256;-73
2021/11/21 05:43:47;;;;;;;13.60;11.40;;;;;;;6.09;100.00;98412.08;102261;1313;70424;-74
2021/11/21 05:46:14;;;;;;;12.60;11.30;;;;;;;6.05;100.00;98408.43;102218;1313;74540;-72
2021/11/21 05:48:40;;;;;;;14.00;12.00;;;;;;;6.02;100.00;98407.77;102179;1313;61256;-73
2021/11/21 05:51:07;;;;;;;12.90;11.40;;;;;;;5.98;100.00;98406.94;102216;1313;62388;-73
2021/11/21 05:53:34;;;;;;;14.60;11.50;;;;;;;5.96;100.00;98405.45;102218;1313;76006;-73
2021/11/21 05:56:00;;;;;;;15.30;12.50;;;;;;;5.93;100.00;98403.65;102197;1313;67706;-73
2021/11/21 05:58:27;;;;;;;14.70;12.90;;;;;;;5.90;100.00;98396.75;102266;1316;71547;-73
2021/11/21 06:00:54;;;;;;;14.20;12.70;;;;;;;5.87;100.00;98397.80;102307;1314;61347;-73
2021/11/21 06:03:20;;;;;;;13.90;11.70;;;;;;;5.84;100.00;98389.20;102299;1314;62409;-73
2021/11/21 06:05:47;;;;;;;12.50;10.90;;;;;;;5.81;100.00;98385.46;102209;1313;76464;-73
2021/11/21 06:08:14;;;;;;;13.80;11.70;;;;;;;5.78;100.00;98391.79;101881;1314;70894;-72
2021/11/21 06:10:41;;;;;;;11.80;10.60;;;;;;;5.75;100.00;98388.47;102296;1313;73541;-72
2021/11/21 06:13:09;;;;;;;15.40;11.50;;;;;;;5.73;100.00;98388.70;102248;1313;61286;-74
2021/11/21 06:15:36;;;;;;;12.20;10.90;;;;;;;5.75;100.00;98390.23;102101;1316;61383;-73
2021/11/21 06:18:03;;;;;;;14.60;11.30;;;;;;;5.76;100.00;98389.48;102383;1312;74919;-74
2021/11/21 06:20:31;;;;;;;12.90;11.50;;;;;;;5.76;100.00;98389.45;102290;1313;70564;-74
2021/11/21 06:22:57;;;;;;;14.70;13.10;;;;;;;5.76;100.00;98391.38;102267;1316;74477;-73
2021/11/21 06:25:24;;;;;;;12.60;10.20;;;;;;;5.75;100.00;98395.84;102233;1313;61311;-74
2021/11/21 06:27:51;;;;;;;11.70;10.50;;;;;;;5.76;100.00;98395.45;102203;1313;61325;-73
2021/11/21 06:30:17;;;;;;;14.90;12.50;;;;;;;5.77;100.00;98392.02;102271;1313;74946;-74
2021/11/21 06:32:44;;;;;;;15.10;12.90;;;;;;;5.79;100.00;98394.91;102270;1314;68891;-74
2021/11/21 06:35:12;;;;;;;17.50;14.70;;;;;;;5.77;100.00;98395.90;102219;1313;73119;-73
2021/11/21 06:37:38;;;;;;;15.40;13.80;;;;;;;5.78;100.00;98396.90;102173;1314;61300;-74
2021/11/21 06:40:06;;;;;;;17.80;15.40;;;;;;;5.79;100.00;98395.08;102232;1314;62127;-73
2021/11/21 06:42:32;;;;;;;16.40;14.50;;;;;;;5.80;100.00;98400.19;102227;1313;74986;-73
2021/11/21 06:44:59;;;;;;;15.60;14.00;;;;;;;5.79;100.00;98395.96;102247;1313;70438;-73
2021/11/21 06:47:26;;;;;;;18.60;12.90;;;;;;;5.79;100.00;98397.72;102186;1316;74568;-74
2021/11/21 06:49:52;;;;;;;15.00;13.40;;;;;;;5.80;100.00;98399.83;102192;1314;61419;-73
2021/11/21 06:52:19;;;;;;;15.30;13.70;;;;;;;5.80;100.00;98400.88;102206;1313;61995;-72
2021/11/21 06:54:46;;;;;;;14.30;12.70;;;;;;;5.80;100.00;98402.11;102210;1317;77152;-74
2021/11/21 06:57:13;;;;;;;16.60;13.90;;;;;;;5.80;100.00;98406.30;102226;1313;68563;-73
2021/11/21 06:59:39;;;;;;;15.50;13.20;;;;;;;5.81;100.00;98407.69;102216;1313;74671;-73
2021/11/21 07:02:06;;;;;;;15.60;13.00;;;;;;;5.82;100.00;98403.57;102219;1319;61328;-72
2021/11/21 07:04:33;;;;;;;15.90;13.70;;;;;;;5.83;100.00;98399.11;102204;1313;62050;-73
2021/11/21 07:07:00;;;;;;;14.00;12.50;;;;;;;5.85;100.00;98395.31;102199;1313;75508;-74
2021/11/21 07:09:26;;;;;;;16.10;14.20;;;;;;;5.86;100.00;98390.67;102191;1314;69470;-75
2021/11/21 07:11:53;;;;;;;14.00;12.50;;;;;;;5.86;100.00;98389.95;102179;1313;61651;-73
2021/11/21 07:14:19;;;;;;;13.90;11.40;;;;;;;5.85;100.00;98390.35;101917;1316;61328;-73
2021/11/21 07:16:48;;;;;;;14.00;11.70;;;;;;;5.84;100.00;98390.04;102202;1316;61244;-74
2021/11/21 07:19:15;;;;;;;14.10;11.80;;;;;;;5.86;100.00;98394.52;101869;1316;74894;-73
2021/11/21 07:21:42;;;;;;;13.60;12.20;;;;;;;5.87;100.00;98395.02;102207;1313;69444;-73
2021/11/21 07:24:09;;;;;;;13.80;11.90;;;;;;;5.88;100.00;98388.26;102021;1319;73183;-73
2021/11/21 07:26:36;;;;;;;14.70;11.80;;;;;;;5.88;100.00;98382.05;102221;1316;61363;-72
2021/11/21 07:29:04;;;;;;;18.00;13.70;;;;;;;5.89;100.00;98375.48;101919;1313;61432;-73
2021/11/21 07:31:32;;;;;;;15.60;13.70;;;;;;;5.91;100.00;98369.73;102274;1313;75645;-73
2021/11/21 07:33:59;;;;;;;17.00;15.10;;;;;;;5.95;100.00;98363.90;102297;1316;68748;-73
2021/11/21 07:36:25;;;;;;;15.80;14.10;;;;;;;6.00;100.00;98366.21;102215;1314;73533;-73
2021/11/21 07:38:52;;;;;;;17.00;15.20;;;;;;;6.07;100.00;98370.24;102195;1316;61335;-74
2021/11/21 07:41:19;;;;;;;20.20;17.20;;;;;;;6.14;100.00;98365.79;102204;1314;61700;-73
2021/11/21 07:43:45;;;;;;;20.10;16.30;;;;;;;6.20;100.00;98364.88;102219;1313;75505;-74
2021/11/21 07:46:12;;;;;;;19.80;17.70;;;;;;;6.28;100.00;98364.97;101884;1316;69475;-73
2021/11/21 07:48:39;;;;;;;20.60;17.40;;;;;;;6.35;100.00;98362.23;102211;1313;73512;-74
2021/11/21 07:51:06;;;;;;;18.50;16.10;;;;;;;6.44;100.00;98363.14;102196;1313;61337;-74
2021/11/21 07:53:33;;;;;;;18.30;16.40;;;;;;;6.50;100.00;98365.38;102188;1313;62293;-74
2021/11/21 07:56:00;;;;;;;18.50;14.70;;;;;;;6.57;100.00;98363.34;102211;1316;75422;-72
2021/11/21 07:58:28;;;;;;;18.30;16.10;;;;;;;6.63;100.00;98359.30;101915;1316;68931;-74
2021/11/21 08:00:55;;;;;;;19.70;15.50;;;;;;;6.69;100.00;98353.63;102188;1313;73595;-73
2021/11/21 08:03:22;;;;;;;19.50;17.50;;;;;;;6.76;99.95;98358.17;101841;1316;61366;-73
2021/11/21 08:05:48;;;;;;;19.50;17.40;;;;;;;6.81;99.98;98356.79;102193;1313;61318;-73
2021/11/21 08:08:15;;;;;;;17.90;15.90;;;;;;;6.89;99.94;98354.02;102200;1313;76228;-74
2021/11/21 08:10:42;;;;;;;20.40;16.60;;;;;;;6.94;99.70;98349.77;102204;1313;71111;-74
2021/11/21 08:13:08;;;;;;;18.30;16.20;;;;;;;7.01;99.67;98352.34;101833;1319;74574;-73
2021/11/21 08:15:35;;;;;;;18.10;16.10;;;;;;;7.09;99.49;98349.23;102201;1313;61355;-74
2021/11/21 08:18:02;;;;;;;18.20;16.20;;;;;;;7.16;99.50;98347.55;102254;1313;61773;-73
2021/11/21 08:20:28;;;;;;;18.00;14.30;;;;;;;7.22;99.49;98338.28;102236;1313;76591;-74
2021/11/21 08:22:55;;;;;;;15.90;13.70;;;;;;;7.30;99.30;98342.23;102214;1313;68638;-73
2021/11/21 08:25:22;;;;;;;14.40;12.80;;;;;;;7.37;99.27;98342.11;102186;1313;74264;-74
2021/11/21 08:27:49;;;;;;;14.30;12.80;;;;;;;7.45;98.99;98347.09;102227;1316;61215;-75
2021/11/21 08:30:15;;;;;;;15.80;12.80;;;;;;;7.50;98.64;98345.88;101941;1316;62134;-73
2021/11/21 08:32:42;;;;;;;16.00;13.10;;;;;;;7.55;98.24;98339.02;102251;1313;76375;-74
2021/11/21 08:35:09;;;;;;;13.90;12.50;;;;;;;7.61;98.08;98335.13;102230;1313;68519;-73
2021/11/21 08:37:35;;;;;;;15.50;12.50;;;;;;;7.65;97.87;98329.73;102166;1313;74536;-74
2021/11/21 08:40:03;;;;;;;14.50;13.00;;;;;;;7.70;97.98;98325.16;101909;1317;61608;-76
2021/11/21 08:42:30;;;;;;;13.40;11.40;;;;;;;7.76;97.85;98327.60;102060;1304;61270;-73
2021/11/21 08:44:57;;;;;;;12.20;11.00;;;;;;;7.82;97.63;98325.60;102354;1316;75287;-73
2021/11/21 08:47:23;;;;;;;12.90;11.60;;;;;;;7.87;97.30;98326.29;102460;1310;70600;-74
2021/11/21 08:49:53;;;;;;;12.80;10.80;;;;;;;7.92;97.18;98321.59;102363;1310;74444;-73
2021/11/21 08:52:19;;;;;;;11.70;10.40;;;;;;;7.98;97.13;98325.08;102249;1310;61444;-75
2021/11/21 08:54:46;;;;;;;13.30;11.20;;;;;;;8.02;96.79;98320.55;101971;1313;61517;-74
2021/11/21 08:57:13;;;;;;;12.00;10.00;;;;;;;8.06;96.55;98321.28;102322;1310;75585;-73
2021/11/21 08:59:39;;;;;;;11.40;10.20;;;;;;;8.14;96.76;98315.14;102320;1311;69624;-74
2021/11/21 09:02:06;;;;;;;11.90;10.60;;;;;;;8.21;96.37;98321.39;102479;1314;73118;-75
2021/11/21 09:04:33;;;;;;;11.20;10.00;;;;;;;8.27;96.43;98320.43;103138;1317;61386;-83
2021/11/21 09:06:59;;;;;;;11.10;9.50;;;;;;;8.35;96.29;98315.09;103582;1310;61297;-78
2021/11/21 09:09:26;;;;;;;10.40;9.40;;;;;;;8.43;96.18;98317.59;103626;1310;73907;-85
2021/11/21 09:11:53;;;;;;;13.00;11.40;;;;;;;8.50;95.90;98314.98;103024;1316;70607;-77
2021/11/21 09:14:19;;;;;;;13.00;11.70;;;;;;;8.58;95.85;98311.42;102691;1310;74441;-83
2021/11/21 09:16:46;;;;;;;10.60;9.30;;;;;;;8.66;95.32;98305.34;104213;1310;59927;-83
2021/11/21 09:19:13;;;;;;;11.50;10.10;;;;;;;8.72;94.86;98308.84;104942;1314;59186;-88
2021/11/21 09:21:42;;;;;;;11.60;10.40;;;;;;;8.79;94.57;98303.40;105266;1310;75467;-89
2021/11/21 09:24:09;;;;;;;13.50;11.20;;;;;;;8.85;94.28;98304.07;102815;1310;69049;-81
2021/11/21 09:26:35;;;;;;;13.40;10.80;;;;;;;8.87;94.07;98292.22;102500;1317;72980;-79
2021/11/21 09:29:03;;;;;;;12.20;9.70;;;;;;;8.93;94.16;98299.23;103083;1310;61327;-84
2021/11/21 09:31:30;;;;;;;11.30;9.90;;;;;;;9.02;93.58;98298.23;102499;1316;62196;-78
2021/11/21 09:33:57;;;;;;;12.00;9.60;;;;;;;9.08;92.67;98295.30;102018;1313;76496;-77
2021/11/21 09:36:23;;;;;;;10.40;9.00;;;;;;;9.10;93.07;98290.58;102179;1313;70602;-83
2021/11/21 09:38:51;;;;;;;10.40;9.20;;;;;;;9.16;93.64;98287.09;102624;1313;74549;-85
2021/11/21 09:41:17;;;;;;;10.60;8.80;;;;;;;9.20;93.31;98289.98;102541;1314;61500;-79
2021/11/21 09:43:44;;;;;;;10.80;9.10;;;;;;;9.17;92.68;98288.79;102266;1315;61322;-83
2021/11/21 09:46:14;;;;;;;10.60;9.40;;;;;;;9.07;91.52;98286.51;102714;1313;74435;-88
2021/11/21 09:48:40;;;;;;;10.40;9.00;;;;;;;9.01;92.48;98288.03;102815;1314;68797;-83
2021/11/21 09:51:07;;;;;;;10.20;8.70;;;;;;;8.97;92.63;98279.78;102501;1312;72992;-76
2021/11/21 09:53:34;;;;;;;11.00;9.10;;;;;;;8.94;92.43;98279.48;102317;1313;61219;-83
2021/11/21 09:56:01;;;;;;;11.60;9.10;;;;;;;8.88;91.58;98279.53;102856;1316;61659;-78
2021/11/21 09:58:27;;;;;;;11.50;9.20;;;;;;;8.83;91.48;98278.33;102502;1314;76405;-82
2021/11/21 10:00:54;;;;;;;10.50;9.00;;;;;;;8.78;91.07;98278.66;102676;1317;68879;-82
2021/11/21 10:03:21;;;;;;;10.80;8.50;;;;;;;8.77;91.16;98273.42;102636;1317;74053;-86
2021/11/21 10:05:53;;;;;;;11.20;8.10;;;;;;;8.80;91.25;98269.49;102773;1313;61307;-83
2021/11/21 10:08:22;;;;;;;9.10;8.10;;;;;;;8.86;90.88;98266.59;102516;1316;61434;-78
2021/11/21 10:10:50;;;;;;;11.50;7.80;;;;;;;8.91;90.86;98258.98;102713;1313;76461;-85
2021/11/21 10:13:48;;;;;;;9.40;7.70;;;;;;;8.97;90.93;98258.56;102883;1314;68559;-85
2021/11/21 10:16:20;;;;;;;11.10;8.60;;;;;;;9.02;90.83;98255.33;102095;1319;72980;-84
2021/11/21 10:19:03;;;;;;;9.60;8.70;;;;;;;9.08;90.44;98256.88;102062;1326;61258;-85
2021/11/21 10:21:30;;;;;;;13.20;8.60;;;;;;;9.12;90.37;98248.94;102485;1319;62415;-89
2021/11/21 10:24:30;;;;;;;9.70;8.70;;;;;;;9.14;90.71;98251.44;102476;1318;75051;-87
2021/11/21 10:27:07;;;;;;;10.80;9.20;;;;;;;9.21;90.86;98250.23;102530;1322;70234;-87
2021/11/21 10:29:45;;;;;;;12.00;10.50;;;;;;;9.32;90.97;98248.90;102534;1319;73056;-80
2021/11/21 10:32:15;;;;;;;11.70;9.80;;;;;;;9.40;90.71;98242.11;102046;1318;61260;-77
2021/11/21 10:34:54;;;;;;;11.20;10.00;;;;;;;9.38;89.98;98240.46;102458;1319;61281;-80
2021/11/21 10:37:35;;;;;;;12.90;10.20;;;;;;;9.34;90.29;98238.46;102955;1317;73969;-70
2021/11/21 10:40:08;;;;;;;12.20;10.60;;;;;;;9.40;90.67;98239.26;101731;1320;70646;-69
2021/11/21 10:42:37;;;;;;;13.70;10.90;;;;;;;9.45;90.51;98233.41;101787;1319;74606;-69
2021/11/21 10:45:06;;;;;;;12.30;10.10;;;;;;;9.51;90.66;98231.17;101707;1319;61429;-68
2021/11/21 10:47:44;;;;;;;12.20;10.40;;;;;;;9.61;90.40;98227.06;101691;1322;62190;-69
2021/11/21 10:50:24;;;;;;;9.50;8.50;;;;;;;9.74;90.37;98225.39;101796;1325;75153;-70
2021/11/21 10:52:50;;;;;;;9.20;7.80;;;;;;;9.86;89.37;98220.71;101870;1314;70852;-70
2021/11/21 10:55:17;;;;;;;8.70;7.80;;;;;;;9.96;89.40;98219.23;101987;1318;73002;-69
2021/11/21 10:57:44;;;;;;;9.50;8.10;;;;;;;10.08;88.94;98218.14;102279;1316;61377;-70
2021/11/21 11:00:16;;;;;;;9.00;8.10;;;;;;;10.05;87.06;98219.09;102322;1317;61338;-70
2021/11/21 11:02:44;;;;;;;10.00;8.50;;;;;;;9.88;87.47;98216.70;102334;1317;75384;-68
2021/11/21 11:05:13;;;;;;;8.60;7.70;;;;;;;9.74;88.03;98214.20;102198;1313;69109;-70
2021/11/21 11:07:47;;;;;;;12.00;8.90;;;;;;;9.64;88.19;98213.36;102448;1310;73384;-72
2021/11/21 11:10:23;;;;;;;10.40;9.30;;;;;;;9.57;88.36;98211.79;102041;1314;61486;-71
2021/11/21 11:12:52;;;;;;;12.20;10.10;;;;;;;9.48;88.36;98209.08;102166;1316;62130;-70
2021/11/21 11:15:21;;;;;;;11.30;8.50;;;;;;;9.38;88.29;98208.20;102433;1310;76473;-72
2021/11/21 11:17:48;;;;;;;9.20;8.20;;;;;;;9.31;88.40;98204.30;102375;1311;67038;-70